Terminal Aerodrome Forecast
Issued by NWS Sterling, VA

Current Version | Previous Version | Graphics & Text | Print | Product List | Glossary On
Versions: 1 2 3 4 5 6 7 8 9 10 11 12 13 14
000
FTUS41 KLWX 192300
TAFMRB
TAF
KMRB 192337Z 2000/2024 15006KT P6SM BKN130
     FM200500 15005KT 5SM BR BKN070
     FM200900 13005KT 2SM BR BKN020
     FM201300 14006KT P6SM BKN010
     FM201500 15009KT P6SM BKN030
     FM201600 15010KT P6SM BKN040
     FM202000 15011KT P6SM -SHRA VCTS OVC070CB=

USA.gov is the U.S. government's official web portal to all federal, state and local government web resources and services.